createdAt,value
2018-06-04T00:00:24.190Z,10.50
2018-06-04T00:02:52.702Z,11.30
2018-06-04T00:05:21.228Z,10.57
2018-06-04T00:07:49.876Z,12.27
2018-06-04T00:10:18.610Z,10.70
2018-06-04T00:12:47.107Z,13.97
2018-06-04T00:15:15.643Z,12.87
2018-06-04T00:17:44.107Z,11.30
2018-06-04T00:20:12.663Z,11.33
2018-06-04T00:22:41.226Z,12.00
2018-06-04T00:25:09.382Z,11.23
2018-06-04T00:27:37.958Z,10.30
2018-06-04T00:30:06.731Z,10.47
2018-06-04T00:32:35.214Z,11.47
2018-06-04T00:35:03.791Z,11.70
2018-06-04T00:37:32.293Z,11.17
2018-06-04T00:40:00.738Z,10.40
2018-06-04T00:42:29.275Z,11.30
2018-06-04T00:44:57.772Z,11.40
2018-06-04T00:47:26.267Z,11.83
2018-06-04T00:49:54.738Z,11.27
2018-06-04T00:52:23.214Z,10.93
2018-06-04T00:54:51.750Z,11.43
2018-06-04T00:57:20.239Z,10.33
2018-06-04T00:59:48.835Z,10.70
2018-06-04T01:02:17.331Z,11.53
2018-06-04T01:04:45.956Z,11.70
2018-06-04T01:07:14.638Z,10.40
2018-06-04T01:09:43.151Z,10.57
2018-06-04T01:12:11.627Z,11.83
2018-06-04T01:14:40.207Z,11.87
2018-06-04T01:17:08.791Z,11.27
2018-06-04T01:19:37.262Z,12.90
2018-06-04T01:22:05.984Z,11.20
2018-06-04T01:24:34.491Z,12.27
2018-06-04T01:27:02.967Z,11.03
2018-06-04T01:29:31.443Z,11.27
2018-06-04T01:31:59.907Z,11.43
2018-06-04T01:34:28.443Z,11.50
2018-06-04T01:36:57.279Z,11.27
2018-06-04T01:39:25.962Z,12.23
2018-06-04T01:41:54.438Z,11.53
2018-06-04T01:44:23.089Z,12.07
2018-06-04T01:46:51.590Z,10.70
2018-06-04T01:49:20.226Z,11.33
2018-06-04T01:51:48.728Z,9.30
2018-06-04T01:54:17.323Z,11.20
2018-06-04T01:56:45.789Z,10.10
2018-06-04T01:59:14.371Z,10.27
2018-06-04T02:01:43.022Z,9.87
2018-06-04T02:04:11.564Z,10.87
2018-06-04T02:06:40.266Z,11.00
2018-06-04T02:09:08.516Z,10.50
2018-06-04T02:11:36.999Z,11.00
2018-06-04T02:14:05.608Z,12.35
2018-06-04T02:16:34.134Z,11.77
2018-06-04T02:19:02.704Z,9.90
2018-06-04T02:21:31.225Z,10.43
2018-06-04T02:23:59.735Z,10.57
2018-06-04T02:26:28.191Z,11.63
2018-06-04T02:28:56.501Z,10.40
2018-06-04T02:31:25.133Z,9.50
2018-06-04T02:33:53.595Z,9.33
2018-06-04T02:36:22.051Z,10.03
2018-06-04T02:38:50.554Z,10.57
2018-06-04T02:41:19.196Z,10.77
2018-06-04T02:43:47.699Z,11.30
2018-06-04T02:46:16.242Z,10.17
2018-06-04T02:48:44.834Z,9.90
2018-06-04T02:51:13.351Z,9.90
2018-06-04T02:53:41.999Z,12.47
2018-06-04T02:56:10.492Z,10.80
2018-06-04T02:58:39.079Z,8.57
2018-06-04T03:01:07.615Z,10.27
2018-06-04T03:03:36.275Z,9.47
2018-06-04T03:06:04.817Z,9.30
2018-06-04T03:08:33.402Z,10.57
2018-06-04T03:11:01.896Z,11.00
2018-06-04T03:13:30.426Z,8.23
2018-06-04T03:15:59.152Z,9.97
2018-06-04T03:18:27.624Z,9.87
2018-06-04T03:20:56.253Z,9.80
2018-06-04T03:23:24.755Z,8.60
2018-06-04T03:25:53.356Z,10.27
2018-06-04T03:28:21.863Z,9.60
2018-06-04T03:30:50.644Z,10.70
2018-06-04T03:33:19.239Z,11.03
2018-06-04T03:35:47.991Z,10.90
2018-06-04T03:38:16.464Z,10.60
2018-06-04T03:40:45.052Z,10.13
2018-06-04T03:43:13.577Z,10.53
2018-06-04T03:45:42.036Z,10.77
2018-06-04T03:48:10.520Z,11.47
2018-06-04T03:50:39.002Z,11.93
2018-06-04T03:53:07.587Z,9.97
2018-06-04T03:55:36.079Z,11.73
2018-06-04T03:58:04.735Z,11.40
2018-06-04T04:00:33.030Z,11.17
2018-06-04T04:03:01.519Z,12.63
2018-06-04T04:05:30.087Z,12.40
2018-06-04T04:07:58.599Z,12.53
2018-06-04T04:10:27.175Z,12.20
2018-06-04T04:12:55.648Z,12.80
2018-06-04T04:15:24.124Z,13.70
2018-06-04T04:17:52.586Z,14.10
2018-06-04T04:20:21.067Z,11.63
2018-06-04T04:22:49.551Z,12.70
2018-06-04T04:25:18.010Z,11.53
2018-06-04T04:27:46.654Z,12.10
2018-06-04T04:30:14.779Z,12.80
2018-06-04T04:32:43.050Z,12.67
2018-06-04T04:35:11.578Z,12.47
2018-06-04T04:37:40.092Z,11.17
2018-06-04T04:40:08.548Z,12.90
2018-06-04T04:42:37.022Z,12.27
2018-06-04T04:45:05.548Z,12.90
2018-06-04T04:47:34.174Z,12.30
2018-06-04T04:50:02.705Z,12.80
2018-06-04T04:52:31.308Z,13.03
2018-06-04T04:54:59.843Z,13.13
2018-06-04T04:57:28.361Z,12.77
2018-06-04T04:59:57.047Z,14.50
2018-06-04T05:02:25.563Z,14.60
2018-06-04T05:04:54.266Z,15.20
2018-06-04T05:07:22.803Z,15.17
2018-06-04T05:09:51.279Z,12.27
2018-06-04T05:12:19.771Z,14.23
2018-06-04T05:14:48.414Z,13.83
2018-06-04T05:17:16.871Z,14.93
2018-06-04T05:19:45.432Z,12.47
2018-06-04T05:22:13.991Z,13.20
2018-06-04T05:24:42.371Z,13.37
2018-06-04T05:27:10.863Z,13.40
2018-06-04T05:29:39.303Z,15.70
2018-06-04T05:32:07.896Z,16.10
2018-06-04T05:34:36.540Z,16.57
2018-06-04T05:37:05.191Z,13.70
2018-06-04T05:39:33.591Z,15.00
2018-06-04T05:42:02.219Z,14.10
2018-06-04T05:44:30.979Z,17.40
2018-06-04T05:46:59.468Z,16.10
2018-06-04T05:49:27.959Z,15.00
2018-06-04T05:51:56.584Z,17.60
2018-06-04T05:54:25.119Z,18.53
2018-06-04T05:56:53.595Z,16.80
2018-06-04T05:59:22.299Z,15.67
2018-06-04T06:01:50.664Z,16.03
2018-06-04T06:04:19.036Z,17.97
2018-06-04T06:06:47.578Z,18.00
2018-06-04T06:09:16.166Z,19.07
2018-06-04T06:11:44.643Z,17.97
2018-06-04T06:14:13.274Z,16.60
2018-06-04T06:16:41.976Z,15.53
2018-06-04T06:19:10.166Z,18.40
2018-06-04T06:21:38.692Z,17.97
2018-06-04T06:24:07.407Z,17.17
2018-06-04T06:26:35.938Z,17.13
2018-06-04T06:29:04.504Z,18.03
2018-06-04T06:31:33.114Z,17.37
2018-06-04T06:34:01.599Z,17.90
2018-06-04T06:36:30.126Z,17.67
2018-06-04T06:38:58.619Z,16.87
2018-06-04T06:41:27.330Z,16.70
2018-06-04T06:43:55.822Z,18.10
2018-06-04T06:46:24.375Z,17.20
2018-06-04T06:48:52.923Z,11.27
2018-06-04T06:51:21.448Z,18.47
2018-06-04T06:53:50.131Z,15.87
2018-06-04T06:56:18.699Z,16.23
2018-06-04T06:58:47.171Z,16.50
2018-06-04T07:01:15.780Z,14.73
2018-06-04T07:03:44.262Z,14.60
2018-06-04T07:06:12.931Z,16.83
2018-06-04T07:08:41.507Z,16.00
2018-06-04T07:11:10.071Z,16.40
2018-06-04T07:13:38.731Z,15.57
2018-06-04T07:16:07.361Z,13.73
2018-06-04T07:18:35.875Z,15.10
2018-06-04T07:21:04.403Z,13.33
2018-06-04T07:23:32.944Z,10.80
2018-06-04T07:26:01.531Z,0.60
2018-06-04T07:28:30.126Z,0.60
2018-06-04T07:30:58.594Z,0.60
2018-06-04T07:33:27.151Z,0.60
2018-06-04T07:36:01.311Z,0.50
2018-06-04T07:38:29.791Z,0.60
2018-06-04T07:40:58.575Z,0.60
2018-06-04T07:43:27.000Z,0.50
2018-06-04T07:45:55.532Z,0.60
2018-06-04T07:48:24.096Z,0.50
2018-06-04T07:50:52.717Z,0.60
2018-06-04T07:53:21.272Z,0.60
2018-06-04T07:55:49.944Z,0.60
2018-06-04T07:58:18.720Z,0.60
2018-06-04T08:00:47.246Z,0.60
2018-06-04T08:03:16.130Z,0.60
2018-06-04T08:05:44.767Z,0.60
2018-06-04T08:08:13.306Z,0.57
2018-06-04T08:10:41.863Z,0.50
2018-06-04T08:13:10.670Z,0.60
2018-06-04T08:15:39.296Z,0.50
2018-06-04T08:18:07.759Z,0.50
2018-06-04T08:20:36.255Z,0.60
2018-06-04T08:23:04.895Z,0.50
2018-06-04T08:25:33.565Z,0.50
2018-06-04T08:28:02.171Z,0.60
2018-06-04T08:30:30.644Z,0.60
2018-06-04T08:32:59.327Z,0.60
2018-06-04T08:35:27.919Z,0.60
2018-06-04T08:37:56.447Z,0.50
2018-06-04T08:40:24.920Z,0.60
2018-06-04T08:42:53.531Z,0.60
2018-06-04T08:45:22.131Z,0.60
2018-06-04T08:47:50.585Z,0.50
2018-06-04T08:50:19.224Z,0.50
2018-06-04T08:52:47.720Z,0.60
2018-06-04T08:55:16.213Z,0.60
2018-06-04T08:57:44.679Z,0.60
2018-06-04T09:00:13.157Z,0.60
2018-06-04T09:02:41.630Z,0.53
2018-06-04T09:05:10.262Z,0.60
2018-06-04T09:07:38.838Z,0.57
2018-06-04T09:10:07.471Z,0.50
2018-06-04T09:12:35.955Z,0.50
2018-06-04T09:15:04.341Z,0.50
2018-06-04T09:17:32.815Z,0.60
2018-06-04T09:20:01.467Z,0.50
2018-06-04T09:22:29.968Z,0.50
2018-06-04T09:24:58.607Z,0.50
2018-06-04T09:27:27.198Z,0.50
2018-06-04T09:29:55.719Z,0.50
2018-06-04T09:32:24.390Z,0.60
2018-06-04T09:34:52.886Z,0.50
2018-06-04T09:37:21.448Z,0.50
2018-06-04T09:39:49.987Z,0.50
2018-06-04T09:42:18.732Z,0.50
2018-06-04T09:44:47.244Z,0.50
2018-06-04T09:47:15.720Z,0.50
2018-06-04T09:49:44.256Z,0.50
2018-06-04T09:52:12.864Z,0.50
2018-06-04T09:54:41.428Z,0.50
2018-06-04T09:57:09.984Z,0.50
2018-06-04T09:59:38.500Z,0.50
2018-06-04T10:02:06.710Z,0.50
2018-06-04T10:04:35.379Z,0.50
2018-06-04T10:07:03.526Z,0.50
2018-06-04T10:09:32.039Z,0.50
2018-06-04T10:12:00.738Z,0.50
2018-06-04T10:14:29.255Z,0.50
2018-06-04T10:16:57.896Z,0.87
2018-06-04T10:19:26.374Z,0.50
2018-06-04T10:21:55.220Z,0.50
2018-06-04T10:24:23.795Z,0.60
2018-06-04T10:26:52.364Z,0.57
2018-06-04T10:29:20.935Z,0.60
2018-06-04T10:31:49.548Z,0.50
2018-06-04T10:34:18.024Z,0.60
2018-06-04T10:36:46.983Z,0.60
2018-06-04T10:39:15.588Z,0.50
2018-06-04T10:41:44.242Z,0.50
2018-06-04T10:44:12.802Z,0.60
2018-06-04T10:46:41.366Z,0.50
2018-06-04T10:49:09.918Z,0.50
2018-06-04T10:51:38.507Z,0.60
2018-06-04T10:54:06.998Z,0.60
2018-06-04T10:56:35.520Z,0.60
2018-06-04T10:59:04.146Z,0.50
2018-06-04T11:01:32.732Z,0.60
2018-06-04T11:04:01.303Z,0.50
2018-06-04T11:06:29.863Z,0.60
2018-06-04T11:08:58.646Z,0.60
2018-06-04T11:11:27.244Z,0.50
2018-06-04T11:13:55.887Z,0.50
2018-06-04T11:16:24.392Z,0.57
2018-06-04T11:18:53.107Z,0.50
2018-06-04T11:21:21.693Z,0.50
2018-06-04T11:23:50.231Z,0.60
2018-06-04T11:26:18.828Z,0.60
2018-06-04T11:28:47.362Z,0.60
2018-06-04T11:31:15.836Z,0.60
2018-06-04T11:33:44.402Z,0.50
2018-06-04T11:36:12.939Z,0.53
2018-06-04T11:38:41.571Z,1.20
2018-06-04T11:41:10.045Z,0.57
2018-06-04T11:43:38.730Z,0.60
2018-06-04T11:46:07.320Z,0.50
2018-06-04T11:48:36.136Z,0.50
2018-06-04T11:51:05.060Z,0.60
2018-06-04T11:53:33.716Z,0.50
2018-06-04T11:56:02.228Z,0.60
2018-06-04T11:58:31.115Z,0.60
2018-06-04T12:00:59.626Z,0.60
2018-06-04T12:03:28.238Z,0.50
2018-06-04T12:05:56.831Z,0.60
2018-06-04T12:08:25.339Z,0.50
2018-06-04T12:10:54.164Z,0.60
2018-06-04T12:13:22.747Z,0.50
2018-06-04T12:15:51.296Z,0.50
2018-06-04T12:18:19.767Z,0.50
2018-06-04T12:20:48.431Z,0.60
2018-06-04T12:23:16.919Z,0.50
2018-06-04T12:25:45.079Z,0.60
2018-06-04T12:28:13.767Z,0.60
2018-06-04T12:30:42.291Z,0.60
2018-06-04T12:33:11.002Z,0.60
2018-06-04T12:35:39.524Z,0.50
2018-06-04T12:38:07.980Z,0.60
2018-06-04T12:40:36.477Z,0.60
2018-06-04T12:43:05.162Z,0.60
2018-06-04T12:45:34.318Z,2.90
2018-06-04T12:48:02.834Z,0.50
2018-06-04T12:50:31.408Z,0.50
2018-06-04T12:52:59.911Z,0.60
2018-06-04T12:55:28.423Z,0.60
2018-06-04T12:57:57.059Z,0.60
2018-06-04T13:00:25.623Z,0.60
2018-06-04T13:02:54.126Z,0.60
2018-06-04T13:05:22.646Z,0.50
2018-06-04T13:07:51.207Z,0.60
2018-06-04T13:10:19.878Z,0.50
2018-06-04T13:12:48.311Z,0.60
2018-06-04T13:15:17.828Z,0.60
2018-06-04T13:17:46.435Z,0.60
2018-06-04T13:20:15.001Z,0.60
2018-06-04T13:22:43.699Z,0.60
2018-06-04T13:25:12.303Z,0.50
2018-06-04T13:27:40.857Z,0.50
2018-06-04T13:30:09.371Z,0.60
2018-06-04T13:32:37.858Z,0.50
2018-06-04T13:35:06.596Z,0.50
2018-06-04T13:37:35.350Z,0.60
2018-06-04T13:40:04.016Z,0.60
2018-06-04T13:42:32.473Z,0.60
2018-06-04T13:45:01.175Z,0.50
2018-06-04T13:47:29.681Z,0.50
2018-06-04T13:49:58.343Z,0.60
2018-06-04T13:52:26.867Z,0.50
2018-06-04T13:54:55.463Z,0.60
2018-06-04T13:57:23.996Z,0.50
2018-06-04T13:59:52.582Z,1.00
2018-06-04T14:02:21.098Z,0.60
2018-06-04T14:04:49.699Z,0.50
2018-06-04T14:07:18.287Z,0.60
2018-06-04T14:09:46.750Z,0.60
2018-06-04T14:12:15.523Z,0.60
2018-06-04T14:14:43.990Z,0.60
2018-06-04T14:17:12.597Z,0.50
2018-06-04T14:19:41.064Z,0.50
2018-06-04T14:22:09.710Z,0.60
2018-06-04T14:24:38.323Z,0.60
2018-06-04T14:27:06.904Z,0.60
2018-06-04T14:29:35.383Z,0.50
2018-06-04T14:32:03.947Z,0.53
2018-06-04T14:34:32.502Z,0.60
2018-06-04T14:37:01.142Z,0.50
2018-06-04T14:39:29.688Z,0.60
2018-06-04T14:41:58.166Z,0.53
2018-06-04T14:44:26.781Z,0.60
2018-06-04T14:46:55.296Z,0.60
2018-06-04T14:49:24.100Z,0.80
2018-06-04T14:51:52.667Z,0.60
2018-06-04T14:54:21.256Z,0.50
2018-06-04T14:56:49.915Z,0.60
2018-06-04T14:59:18.418Z,0.60
2018-06-04T15:01:47.206Z,0.50
2018-06-04T15:04:15.845Z,0.60
2018-06-04T15:06:44.368Z,0.60
2018-06-04T15:09:13.077Z,0.50
2018-06-04T15:11:41.585Z,0.83
2018-06-04T15:14:10.107Z,0.57
2018-06-04T15:16:38.819Z,0.60
2018-06-04T15:19:07.598Z,0.60
2018-06-04T15:21:36.190Z,0.60
2018-06-04T15:24:04.711Z,0.50
2018-06-04T15:26:33.359Z,0.60
2018-06-04T15:29:01.676Z,0.50
2018-06-04T15:31:30.238Z,0.70
2018-06-04T15:33:58.935Z,0.50
2018-06-04T15:36:27.461Z,0.80
2018-06-04T15:38:56.150Z,0.60
2018-06-04T15:41:24.780Z,0.60
2018-06-04T15:43:53.306Z,1.70
2018-06-04T15:46:21.874Z,0.57
2018-06-04T15:48:50.502Z,0.50
2018-06-04T15:51:19.058Z,0.60
2018-06-04T15:53:47.647Z,0.60
2018-06-04T15:56:16.186Z,0.67
2018-06-04T15:58:44.850Z,0.50
2018-06-04T16:01:13.197Z,0.57
2018-06-04T16:03:41.706Z,0.57
2018-06-04T16:06:10.286Z,0.50
2018-06-04T16:08:38.818Z,0.60
2018-06-04T16:11:07.335Z,0.60
2018-06-04T16:13:35.921Z,0.50
2018-06-04T16:16:04.448Z,0.50
2018-06-04T16:18:32.964Z,0.50
2018-06-04T16:21:01.554Z,0.60
2018-06-04T16:23:30.091Z,0.60
2018-06-04T16:25:58.711Z,0.60
2018-06-04T16:28:27.194Z,0.70
2018-06-04T16:30:55.766Z,0.60
2018-06-04T16:33:24.296Z,0.50
2018-06-04T16:35:53.012Z,0.50
2018-06-04T16:38:21.507Z,0.50
2018-06-04T16:40:49.996Z,0.50
2018-06-04T16:43:18.675Z,0.50
2018-06-04T16:45:47.207Z,0.60
2018-06-04T16:48:15.809Z,0.57
2018-06-04T16:50:44.287Z,0.60
2018-06-04T16:53:12.857Z,0.60
2018-06-04T16:55:41.343Z,0.50
2018-06-04T16:58:09.963Z,1.00
2018-06-04T17:00:38.802Z,0.60
2018-06-04T17:03:07.301Z,0.60
2018-06-04T17:05:35.812Z,0.60
2018-06-04T17:08:04.323Z,0.60
2018-06-04T17:10:32.974Z,0.60
2018-06-04T17:13:01.530Z,0.60
2018-06-04T17:15:30.045Z,0.60
2018-06-04T17:17:58.562Z,0.60
2018-06-04T17:20:27.482Z,0.50
2018-06-04T17:22:56.019Z,0.60
2018-06-04T17:25:24.619Z,0.50
2018-06-04T17:27:53.282Z,0.50
2018-06-04T17:30:21.809Z,0.50
2018-06-04T17:32:50.470Z,0.50
2018-06-04T17:35:19.063Z,0.60
2018-06-04T17:37:47.719Z,0.50
2018-06-04T17:40:16.352Z,0.70
2018-06-04T17:42:45.184Z,0.60
2018-06-04T17:45:13.801Z,0.60
2018-06-04T17:47:42.098Z,0.60
2018-06-04T17:50:10.639Z,0.50
2018-06-04T17:52:39.122Z,0.60
2018-06-04T17:55:07.737Z,0.50
2018-06-04T17:57:36.251Z,0.60
2018-06-04T18:00:05.484Z,0.50
2018-06-04T18:02:34.071Z,0.50
2018-06-04T18:05:02.603Z,0.60
2018-06-04T18:07:31.209Z,0.50
2018-06-04T18:09:59.900Z,0.50
2018-06-04T18:12:28.471Z,0.50
2018-06-04T18:14:57.232Z,0.50
2018-06-04T18:17:25.726Z,0.60
2018-06-04T18:19:54.226Z,0.60
2018-06-04T18:22:22.777Z,0.60
2018-06-04T18:24:51.379Z,0.60
2018-06-04T18:27:20.095Z,0.60
2018-06-04T18:29:48.742Z,0.50
2018-06-04T18:32:17.691Z,0.60
2018-06-04T18:34:46.232Z,0.60
2018-06-04T18:37:14.799Z,0.60
2018-06-04T18:39:43.614Z,0.50
2018-06-04T18:42:12.110Z,0.50
2018-06-04T18:44:40.865Z,0.50
2018-06-04T18:47:09.335Z,0.50
2018-06-04T18:49:38.147Z,0.50
2018-06-04T18:52:06.686Z,0.50
2018-06-04T18:54:35.557Z,0.60
2018-06-04T18:57:04.097Z,0.60
2018-06-04T18:59:32.660Z,0.50
2018-06-04T19:02:01.835Z,0.60
2018-06-04T19:04:30.547Z,0.60
2018-06-04T19:06:59.072Z,0.50
2018-06-04T19:09:27.725Z,0.60
2018-06-04T19:11:56.339Z,0.60
2018-06-04T19:14:24.902Z,0.60
2018-06-04T19:16:53.561Z,0.60
2018-06-04T19:19:22.267Z,0.60
2018-06-04T19:21:50.992Z,0.60
2018-06-04T19:24:19.758Z,0.60
2018-06-04T19:26:48.444Z,0.60
2018-06-04T19:29:16.959Z,0.60
2018-06-04T19:31:45.813Z,0.60
2018-06-04T19:34:14.113Z,0.60
2018-06-04T19:36:42.696Z,0.60
2018-06-04T19:39:11.406Z,0.60
2018-06-04T19:41:39.859Z,0.60
2018-06-04T19:44:08.380Z,0.60
2018-06-04T19:46:36.999Z,0.50
2018-06-04T19:49:05.770Z,0.60
2018-06-04T19:51:34.459Z,0.60
2018-06-04T19:54:03.242Z,0.60
2018-06-04T19:56:32.039Z,0.60
2018-06-04T19:59:00.580Z,0.60
2018-06-04T20:01:29.224Z,0.60
2018-06-04T20:03:57.791Z,0.60
2018-06-04T20:06:26.338Z,0.60
2018-06-04T20:08:54.977Z,0.60
2018-06-04T20:11:23.545Z,0.60
2018-06-04T20:13:52.123Z,0.60
2018-06-04T20:16:20.700Z,0.50
2018-06-04T20:18:49.371Z,0.60
2018-06-04T20:21:17.966Z,0.50
2018-06-04T20:23:46.647Z,0.60
2018-06-04T20:26:15.406Z,0.60
2018-06-04T20:28:44.237Z,0.60
2018-06-04T20:31:12.755Z,0.60
2018-06-04T20:33:41.316Z,0.60
2018-06-04T20:36:10.099Z,0.60
2018-06-04T20:38:38.938Z,0.60
2018-06-04T20:41:07.463Z,0.60
2018-06-04T20:43:35.970Z,0.60
2018-06-04T20:46:04.632Z,0.57
2018-06-04T20:48:33.248Z,0.60
2018-06-04T20:51:01.959Z,0.60
2018-06-04T20:53:30.514Z,0.60
2018-06-04T20:55:59.079Z,0.60
2018-06-04T20:58:27.914Z,0.60
2018-06-04T21:00:56.472Z,0.60
2018-06-04T21:03:25.091Z,0.60
2018-06-04T21:05:53.726Z,0.60
2018-06-04T21:08:22.223Z,0.60
2018-06-04T21:10:51.786Z,0.60
2018-06-04T21:13:20.311Z,0.60
2018-06-04T21:15:48.911Z,0.60
2018-06-04T21:18:17.425Z,0.60
2018-06-04T21:20:45.930Z,0.60
2018-06-04T21:23:14.550Z,0.60
2018-06-04T21:25:43.125Z,0.60
2018-06-04T21:28:11.820Z,0.60
2018-06-04T21:30:40.665Z,0.60
2018-06-04T21:33:09.363Z,0.60
2018-06-04T21:35:37.857Z,0.60
2018-06-04T21:38:06.574Z,0.50
2018-06-04T21:40:35.187Z,0.60
2018-06-04T21:43:03.856Z,0.60
2018-06-04T21:45:32.419Z,0.60
2018-06-04T21:48:00.927Z,0.60
2018-06-04T21:50:29.467Z,0.60
2018-06-04T21:52:58.055Z,0.60
2018-06-04T21:55:26.858Z,0.60
2018-06-04T21:57:55.551Z,0.60
2018-06-04T22:00:24.143Z,0.60
2018-06-04T22:02:52.699Z,0.60
2018-06-04T22:05:21.276Z,0.60
2018-06-04T22:07:49.836Z,0.60
2018-06-04T22:10:18.683Z,0.60
2018-06-04T22:12:46.947Z,0.60
2018-06-04T22:15:15.531Z,0.60
2018-06-04T22:17:44.051Z,0.60
2018-06-04T22:20:12.746Z,0.60
2018-06-04T22:22:41.495Z,0.60
2018-06-04T22:25:10.090Z,0.60
2018-06-04T22:27:38.636Z,0.60
2018-06-04T22:30:07.123Z,0.60
2018-06-04T22:32:35.830Z,0.60
2018-06-04T22:35:04.744Z,0.60
2018-06-04T22:37:33.227Z,0.60
2018-06-04T22:40:01.788Z,0.60
2018-06-04T22:42:30.301Z,0.60
2018-06-04T22:44:58.938Z,0.60
2018-06-04T22:47:27.478Z,0.60
2018-06-04T22:49:55.956Z,0.60
2018-06-04T22:52:24.648Z,0.60
2018-06-04T22:54:53.271Z,0.50
2018-06-04T22:57:21.812Z,0.60
2018-06-04T22:59:50.346Z,0.60
2018-06-04T23:02:18.814Z,0.60
2018-06-04T23:04:47.178Z,0.60
2018-06-04T23:07:15.648Z,0.60
2018-06-04T23:09:44.370Z,0.60
2018-06-04T23:12:12.851Z,0.60
2018-06-04T23:14:41.390Z,0.60
2018-06-04T23:17:09.883Z,0.60
2018-06-04T23:19:38.367Z,0.60
2018-06-04T23:22:06.831Z,0.60
2018-06-04T23:24:35.431Z,0.60
2018-06-04T23:27:03.958Z,0.60
2018-06-04T23:29:32.423Z,0.60
2018-06-04T23:32:01.167Z,0.60
2018-06-04T23:34:29.618Z,0.60
2018-06-04T23:36:58.147Z,0.60
2018-06-04T23:39:26.655Z,0.60
2018-06-04T23:41:55.152Z,0.60
2018-06-04T23:44:23.627Z,0.60
2018-06-04T23:46:52.105Z,0.60
2018-06-04T23:49:24.989Z,0.60
2018-06-04T23:51:53.630Z,0.60
2018-06-04T23:54:21.814Z,0.60
2018-06-04T23:56:50.313Z,0.70
2018-06-04T23:59:18.800Z,0.60
